createdAt,value
2017-09-10T00:00:01.907Z,1001.1
2017-09-10T00:01:03.373Z,1001.1
2017-09-10T00:02:04.777Z,1001.1
2017-09-10T00:03:06.236Z,1001.1
2017-09-10T00:04:07.696Z,1001.1
2017-09-10T00:05:09.271Z,1001.1
2017-09-10T00:06:10.705Z,1001.1
2017-09-10T00:07:12.271Z,1001.1
2017-09-10T00:08:13.728Z,1001.1
2017-09-10T00:09:15.239Z,1001.1
2017-09-10T00:10:16.659Z,1001.1
2017-09-10T00:11:18.220Z,1001.1
2017-09-10T00:12:19.646Z,1001.1
2017-09-10T00:13:21.232Z,1001.1
2017-09-10T00:14:22.700Z,1001.1
2017-09-10T00:15:24.171Z,1001.2
2017-09-10T00:16:25.603Z,1001.2
2017-09-10T00:17:27.215Z,1001.1
2017-09-10T00:18:28.676Z,1001.1
2017-09-10T00:19:30.182Z,1001.1
2017-09-10T00:20:31.635Z,1001.1
2017-09-10T00:21:33.149Z,1001.1
2017-09-10T00:22:34.628Z,1001.1
2017-09-10T00:23:36.090Z,1001.0
2017-09-10T00:24:37.521Z,1001.0
2017-09-10T00:25:38.997Z,1001.0
2017-09-10T00:26:40.403Z,1001.0
2017-09-10T00:27:41.887Z,1001.0
2017-09-10T00:28:43.358Z,1001.0
2017-09-10T00:29:44.900Z,1001.1
2017-09-10T00:30:46.334Z,1001.0
2017-09-10T00:31:47.889Z,1001.1
2017-09-10T00:32:49.374Z,1001.1
2017-09-10T00:33:50.823Z,1001.1
2017-09-10T00:34:52.300Z,1001.1
2017-09-10T00:35:53.840Z,1001.1
2017-09-10T00:36:55.333Z,1001.1
2017-09-10T00:37:56.867Z,1001.0
2017-09-10T00:38:58.383Z,1001.1
2017-09-10T00:39:59.976Z,1001.1
2017-09-10T00:41:01.422Z,1001.0
2017-09-10T00:42:03.002Z,1001.1
2017-09-10T00:43:04.504Z,1001.1
2017-09-10T00:44:06.065Z,1001.1
2017-09-10T00:45:07.545Z,1001.1
2017-09-10T00:46:09.090Z,1001.1
2017-09-10T00:47:10.589Z,1001.1
2017-09-10T00:48:12.151Z,1001.1
2017-09-10T00:49:13.593Z,1001.2
2017-09-10T00:50:15.126Z,1001.2
2017-09-10T00:51:16.632Z,1001.1
2017-09-10T00:52:18.100Z,1001.2
2017-09-10T00:53:19.635Z,1001.2
2017-09-10T00:54:21.206Z,1001.1
2017-09-10T00:55:22.704Z,1001.2
2017-09-10T00:56:24.217Z,1001.2
2017-09-10T00:57:25.746Z,1001.2
2017-09-10T00:58:27.339Z,1001.2
2017-09-10T00:59:28.812Z,1001.2
2017-09-10T01:00:30.438Z,1001.3
2017-09-10T01:01:31.953Z,1001.2
2017-09-10T01:02:33.441Z,1001.2
2017-09-10T01:03:34.941Z,1001.2
2017-09-10T01:04:36.470Z,1001.3
2017-09-10T01:05:37.935Z,1001.2
2017-09-10T01:06:39.592Z,1001.3
2017-09-10T01:07:41.027Z,1001.3
2017-09-10T01:08:42.606Z,1001.3
2017-09-10T01:09:44.116Z,1001.4
2017-09-10T01:10:45.763Z,1001.3
2017-09-10T01:11:47.452Z,1001.4
2017-09-10T01:12:49.071Z,1001.4
2017-09-10T01:13:50.648Z,1001.4
2017-09-10T01:14:52.167Z,1001.4
2017-09-10T01:15:53.673Z,1001.4
2017-09-10T01:16:55.173Z,1001.4
2017-09-10T01:17:56.680Z,1001.4
2017-09-10T01:18:58.235Z,1001.4
2017-09-10T01:19:59.745Z,1001.4
2017-09-10T01:21:01.301Z,1001.4
2017-09-10T01:22:02.805Z,1001.4
2017-09-10T01:23:04.371Z,1001.4
2017-09-10T01:24:05.845Z,1001.4
2017-09-10T01:25:07.455Z,1001.4
2017-09-10T01:26:08.995Z,1001.5
2017-09-10T01:27:10.578Z,1001.5
2017-09-10T01:28:12.106Z,1001.5
2017-09-10T01:29:13.984Z,1001.5
2017-09-10T01:30:15.480Z,1001.5
2017-09-10T01:31:16.990Z,1001.5
2017-09-10T01:32:18.507Z,1001.5
2017-09-10T01:33:20.131Z,1001.5
2017-09-10T01:34:21.608Z,1001.5
2017-09-10T01:35:23.184Z,1001.5
2017-09-10T01:36:24.677Z,1001.6
2017-09-10T01:37:26.297Z,1001.5
2017-09-10T01:38:27.832Z,1001.6
2017-09-10T01:39:29.339Z,1001.6
2017-09-10T01:40:31.247Z,1001.5
2017-09-10T01:41:32.825Z,1001.5
2017-09-10T01:42:34.330Z,1001.6
2017-09-10T01:43:35.911Z,1001.6
2017-09-10T01:44:37.438Z,1001.6
2017-09-10T01:45:39.050Z,1001.6
2017-09-10T01:46:40.556Z,1001.6
2017-09-10T01:47:42.180Z,1001.7
2017-09-10T01:48:43.664Z,1001.7
2017-09-10T01:49:45.225Z,1001.7
2017-09-10T01:50:46.752Z,1001.7
2017-09-10T01:51:48.280Z,1001.7
2017-09-10T01:52:49.748Z,1001.8
2017-09-10T01:53:51.258Z,1001.8
2017-09-10T01:54:52.708Z,1001.8
2017-09-10T01:55:54.276Z,1001.8
2017-09-10T01:56:55.731Z,1001.8
2017-09-10T01:57:57.372Z,1001.9
2017-09-10T01:58:58.915Z,1001.9
2017-09-10T02:00:00.515Z,1001.9
2017-09-10T02:01:01.998Z,1001.9
2017-09-10T02:02:03.517Z,1001.9
2017-09-10T02:03:05.023Z,1001.9
2017-09-10T02:04:06.620Z,1001.9
2017-09-10T02:05:08.092Z,1001.9
2017-09-10T02:06:09.674Z,1001.9
2017-09-10T02:07:11.176Z,1001.9
2017-09-10T02:08:12.753Z,1001.9
2017-09-10T02:09:14.600Z,1001.9
2017-09-10T02:10:16.112Z,1001.9
2017-09-10T02:11:17.591Z,1001.9
2017-09-10T02:12:19.156Z,1001.9
2017-09-10T02:13:20.614Z,1001.9
2017-09-10T02:14:22.126Z,1001.9
2017-09-10T02:15:23.642Z,1001.9
2017-09-10T02:16:25.199Z,1001.9
2017-09-10T02:17:26.691Z,1001.9
2017-09-10T02:18:28.175Z,1001.9
2017-09-10T02:19:29.648Z,1001.9
2017-09-10T02:20:31.150Z,1001.9
2017-09-10T02:21:32.609Z,1001.9
2017-09-10T02:22:34.193Z,1001.9
2017-09-10T02:23:35.637Z,1001.9
2017-09-10T02:24:37.149Z,1001.9
2017-09-10T02:25:38.611Z,1001.9
2017-09-10T02:26:40.129Z,1002.0
2017-09-10T02:27:41.606Z,1001.9
2017-09-10T02:28:43.112Z,1002.0
2017-09-10T02:29:44.608Z,1002.0
2017-09-10T02:30:46.205Z,1002.0
2017-09-10T02:31:47.695Z,1002.0
2017-09-10T02:32:49.225Z,1002.0
2017-09-10T02:33:50.711Z,1002.0
2017-09-10T02:34:52.266Z,1002.0
2017-09-10T02:35:53.679Z,1001.9
2017-09-10T02:36:55.208Z,1002.0
2017-09-10T02:37:56.648Z,1002.0
2017-09-10T02:38:58.167Z,1002.0
2017-09-10T02:39:59.606Z,1002.0
2017-09-10T02:41:01.088Z,1002.0
2017-09-10T02:42:02.534Z,1002.0
2017-09-10T02:43:04.104Z,1002.0
2017-09-10T02:44:05.591Z,1002.1
2017-09-10T02:45:07.018Z,1002.0
2017-09-10T02:46:08.483Z,1002.0
2017-09-10T02:47:10.064Z,1002.1
2017-09-10T02:48:11.517Z,1002.0
2017-09-10T02:49:13.041Z,1002.1
2017-09-10T02:50:14.512Z,1002.1
2017-09-10T02:51:15.990Z,1002.1
2017-09-10T02:52:17.436Z,1002.1
2017-09-10T02:53:18.997Z,1002.1
2017-09-10T02:54:20.457Z,1002.1
2017-09-10T02:55:21.999Z,1002.1
2017-09-10T02:56:23.494Z,1002.1
2017-09-10T02:57:24.923Z,1002.1
2017-09-10T02:58:26.340Z,1002.1
2017-09-10T02:59:27.828Z,1002.1
2017-09-10T03:00:29.259Z,1002.1
2017-09-10T03:01:30.727Z,1002.1
2017-09-10T03:02:32.185Z,1002.1
2017-09-10T03:03:33.690Z,1002.1
2017-09-10T03:04:35.093Z,1002.1
2017-09-10T03:05:36.604Z,1002.1
2017-09-10T03:06:38.024Z,1002.1
2017-09-10T03:07:39.584Z,1002.1
2017-09-10T03:08:40.978Z,1002.2
2017-09-10T03:09:42.443Z,1002.1
2017-09-10T03:10:43.821Z,1002.1
2017-09-10T03:11:45.345Z,1002.1
2017-09-10T03:12:46.732Z,1002.1
2017-09-10T03:13:48.184Z,1002.2
2017-09-10T03:14:49.600Z,1002.2
2017-09-10T03:15:51.113Z,1002.2
2017-09-10T03:16:52.589Z,1002.2
2017-09-10T03:17:54.066Z,1002.1
2017-09-10T03:18:55.493Z,1002.1
2017-09-10T03:19:56.966Z,1002.1
2017-09-10T03:20:58.386Z,1002.1
2017-09-10T03:21:59.866Z,1002.1
2017-09-10T03:23:01.320Z,1002.1
2017-09-10T03:24:02.784Z,1002.1
2017-09-10T03:25:04.223Z,1002.1
2017-09-10T03:26:05.735Z,1002.1
2017-09-10T03:27:07.149Z,1002.1
2017-09-10T03:28:08.679Z,1002.1
2017-09-10T03:29:10.107Z,1002.1
2017-09-10T03:30:11.579Z,1002.2
2017-09-10T03:31:12.978Z,1002.1
2017-09-10T03:32:14.436Z,1002.2
2017-09-10T03:33:15.895Z,1002.1
2017-09-10T03:34:17.310Z,1002.2
2017-09-10T03:35:18.707Z,1002.2
2017-09-10T03:36:20.212Z,1002.2
2017-09-10T03:37:21.637Z,1002.2
2017-09-10T03:38:23.094Z,1002.2
2017-09-10T03:39:24.490Z,1002.2
2017-09-10T03:40:25.955Z,1002.2
2017-09-10T03:41:27.374Z,1002.2
2017-09-10T03:42:28.854Z,1002.2
2017-09-10T03:43:30.260Z,1002.2
2017-09-10T03:44:31.719Z,1002.2
2017-09-10T03:45:33.152Z,1002.1
2017-09-10T03:46:34.604Z,1002.1
2017-09-10T03:47:36.014Z,1002.1
2017-09-10T03:48:37.503Z,1002.1
2017-09-10T03:49:38.917Z,1002.1
2017-09-10T03:50:40.379Z,1002.1
2017-09-10T03:51:41.818Z,1002.1
2017-09-10T03:52:43.263Z,1002.1
2017-09-10T03:53:44.660Z,1002.1
2017-09-10T03:54:46.154Z,1002.1
2017-09-10T03:55:47.568Z,1002.1
2017-09-10T03:56:49.045Z,1002.1
2017-09-10T03:57:50.438Z,1002.1
2017-09-10T03:58:51.883Z,1002.1
2017-09-10T03:59:53.306Z,1002.1
2017-09-10T04:00:54.799Z,1002.1
2017-09-10T04:01:56.192Z,1002.1
2017-09-10T04:02:57.676Z,1002.1
2017-09-10T04:03:59.070Z,1002.1
2017-09-10T04:05:00.549Z,1002.1
2017-09-10T04:06:01.958Z,1002.1
2017-09-10T04:07:03.433Z,1002.2
2017-09-10T04:08:04.817Z,1002.2
2017-09-10T04:09:06.322Z,1002.2
2017-09-10T04:10:07.745Z,1002.2
2017-09-10T04:11:09.219Z,1002.2
2017-09-10T04:12:10.689Z,1002.2
2017-09-10T04:13:12.197Z,1002.2
2017-09-10T04:14:13.704Z,1002.3
2017-09-10T04:15:15.196Z,1002.3
2017-09-10T04:16:16.612Z,1002.3
2017-09-10T04:17:18.038Z,1002.3
2017-09-10T04:18:19.494Z,1002.3
2017-09-10T04:19:20.923Z,1002.4
2017-09-10T04:20:22.335Z,1002.3
2017-09-10T04:21:23.793Z,1002.3
2017-09-10T04:22:25.235Z,1002.3
2017-09-10T04:23:26.693Z,1002.3
2017-09-10T04:24:28.172Z,1002.3
2017-09-10T04:25:29.699Z,1002.3
2017-09-10T04:26:31.156Z,1002.3
2017-09-10T04:27:32.678Z,1002.3
2017-09-10T04:28:34.088Z,1002.3
2017-09-10T04:29:35.535Z,1002.3
2017-09-10T04:30:36.980Z,1002.3
2017-09-10T04:31:38.461Z,1002.3
2017-09-10T04:32:39.889Z,1002.4
2017-09-10T04:33:41.408Z,1002.3
2017-09-10T04:34:42.903Z,1002.3
2017-09-10T04:35:44.417Z,1002.4
2017-09-10T04:36:45.860Z,1002.3
2017-09-10T04:37:47.387Z,1002.4
2017-09-10T04:38:48.799Z,1002.4
2017-09-10T04:39:50.284Z,1002.4
2017-09-10T04:40:51.684Z,1002.4
2017-09-10T04:41:53.145Z,1002.4
2017-09-10T04:42:54.555Z,1002.4
2017-09-10T04:43:56.047Z,1002.5
2017-09-10T04:44:57.506Z,1002.5
2017-09-10T04:45:59.019Z,1002.6
2017-09-10T04:47:00.439Z,1002.6
2017-09-10T04:48:01.903Z,1002.6
2017-09-10T04:49:03.329Z,1002.6
2017-09-10T04:50:04.892Z,1002.6
2017-09-10T04:51:06.333Z,1002.6
2017-09-10T04:52:07.863Z,1002.6
2017-09-10T04:53:09.299Z,1002.6
2017-09-10T04:54:10.721Z,1002.6
2017-09-10T04:55:12.143Z,1002.6
2017-09-10T04:56:13.613Z,1002.6
2017-09-10T04:57:15.051Z,1002.6
2017-09-10T04:58:16.501Z,1002.6
2017-09-10T04:59:17.923Z,1002.6
2017-09-10T05:00:19.374Z,1002.6
2017-09-10T05:01:20.790Z,1002.6
2017-09-10T05:02:22.273Z,1002.6
2017-09-10T05:03:23.667Z,1002.7
2017-09-10T05:04:25.177Z,1002.6
2017-09-10T05:05:26.600Z,1002.6
2017-09-10T05:06:28.143Z,1002.7
2017-09-10T05:07:29.549Z,1002.7
2017-09-10T05:08:30.994Z,1002.6
2017-09-10T05:09:32.431Z,1002.7
2017-09-10T05:10:33.890Z,1002.7
2017-09-10T05:11:35.334Z,1002.7
2017-09-10T05:12:36.817Z,1002.7
2017-09-10T05:13:38.257Z,1002.7
2017-09-10T05:14:39.786Z,1002.7
2017-09-10T05:15:41.207Z,1002.7
2017-09-10T05:16:42.762Z,1002.7
2017-09-10T05:17:44.217Z,1002.7
2017-09-10T05:18:45.746Z,1002.7
2017-09-10T05:19:47.175Z,1002.7
2017-09-10T05:20:48.621Z,1002.7
2017-09-10T05:21:50.080Z,1002.8
2017-09-10T05:22:51.600Z,1002.8
2017-09-10T05:23:53.047Z,1002.8
2017-09-10T05:24:54.509Z,1002.9
2017-09-10T05:25:55.925Z,1002.8
2017-09-10T05:26:57.475Z,1002.9
2017-09-10T05:27:58.934Z,1002.9
2017-09-10T05:29:00.478Z,1003.0
2017-09-10T05:30:01.922Z,1003.0
2017-09-10T05:31:03.462Z,1003.0
2017-09-10T05:32:04.900Z,1003.0
2017-09-10T05:33:06.448Z,1003.1
2017-09-10T05:34:07.874Z,1003.1
2017-09-10T05:35:09.403Z,1003.1
2017-09-10T05:36:10.850Z,1003.1
2017-09-10T05:37:12.284Z,1003.1
2017-09-10T05:38:13.738Z,1003.2
2017-09-10T05:39:15.308Z,1003.2
2017-09-10T05:40:16.737Z,1003.2
2017-09-10T05:41:18.256Z,1003.2
2017-09-10T05:42:19.689Z,1003.2
2017-09-10T05:43:21.135Z,1003.3
2017-09-10T05:44:22.601Z,1003.3
2017-09-10T05:45:24.119Z,1003.2
2017-09-10T05:46:25.537Z,1003.3
2017-09-10T05:47:27.012Z,1003.2
2017-09-10T05:48:28.447Z,1003.3
2017-09-10T05:49:29.983Z,1003.3
2017-09-10T05:50:31.406Z,1003.3
2017-09-10T05:51:32.870Z,1003.3
2017-09-10T05:52:34.282Z,1003.4
2017-09-10T05:53:35.756Z,1003.3
2017-09-10T05:54:37.183Z,1003.3
2017-09-10T05:55:38.621Z,1003.3
2017-09-10T05:56:40.051Z,1003.3
2017-09-10T05:57:41.531Z,1003.3
2017-09-10T05:58:42.936Z,1003.4
2017-09-10T05:59:44.415Z,1003.4
2017-09-10T06:00:45.837Z,1003.4
2017-09-10T06:01:47.290Z,1003.5
2017-09-10T06:02:48.732Z,1003.5
2017-09-10T06:03:50.266Z,1003.5
2017-09-10T06:04:51.695Z,1003.6
2017-09-10T06:05:53.182Z,1003.6
2017-09-10T06:06:54.671Z,1003.6
2017-09-10T06:07:56.134Z,1003.7
2017-09-10T06:08:57.583Z,1003.7
2017-09-10T06:09:59.110Z,1003.7
2017-09-10T06:11:00.532Z,1003.7
2017-09-10T06:12:01.996Z,1003.7
2017-09-10T06:13:03.426Z,1003.7
2017-09-10T06:14:04.870Z,1003.7
2017-09-10T06:15:06.302Z,1003.7
2017-09-10T06:16:07.758Z,1003.8
2017-09-10T06:17:09.173Z,1003.8
2017-09-10T06:18:10.641Z,1003.8
2017-09-10T06:19:12.080Z,1003.9
2017-09-10T06:20:13.512Z,1003.9
2017-09-10T06:21:14.944Z,1003.8
2017-09-10T06:22:16.419Z,1003.9
2017-09-10T06:23:17.851Z,1003.9
2017-09-10T06:24:19.279Z,1003.9
2017-09-10T06:25:20.714Z,1003.9
2017-09-10T06:26:22.151Z,1003.9
2017-09-10T06:27:23.578Z,1004.0
2017-09-10T06:28:25.040Z,1004.0
2017-09-10T06:29:26.458Z,1004.0
2017-09-10T06:30:27.904Z,1004.1
2017-09-10T06:31:29.346Z,1004.1
2017-09-10T06:32:30.792Z,1004.1
2017-09-10T06:33:32.369Z,1004.1
2017-09-10T06:34:33.891Z,1004.2
2017-09-10T06:35:35.357Z,1004.3
2017-09-10T06:36:36.890Z,1004.4
2017-09-10T06:37:38.312Z,1004.4
2017-09-10T06:38:39.740Z,1004.4
2017-09-10T06:39:41.149Z,1004.4
2017-09-10T06:40:42.662Z,1004.4
2017-09-10T06:41:44.068Z,1004.4
2017-09-10T06:42:45.500Z,1004.6
2017-09-10T06:43:46.945Z,1004.7
2017-09-10T06:44:48.410Z,1004.8
2017-09-10T06:45:49.820Z,1004.6
2017-09-10T06:46:51.300Z,1004.5
2017-09-10T06:47:52.782Z,1004.4
2017-09-10T06:48:54.283Z,1004.4
2017-09-10T06:49:55.685Z,1004.3
2017-09-10T06:50:57.187Z,1004.3
2017-09-10T06:51:58.597Z,1004.0
2017-09-10T06:53:00.020Z,1003.6
2017-09-10T06:54:01.482Z,1003.8
2017-09-10T06:55:02.947Z,1004.2
2017-09-10T06:56:04.353Z,1004.4
2017-09-10T06:57:05.825Z,1004.5
2017-09-10T06:58:07.260Z,1004.6
2017-09-10T06:59:08.808Z,1004.9
2017-09-10T07:00:10.241Z,1005.0
2017-09-10T07:01:11.776Z,1005.0
2017-09-10T07:02:13.173Z,1004.9
2017-09-10T07:03:14.662Z,1005.0
2017-09-10T07:04:16.126Z,1005.0
2017-09-10T07:05:17.636Z,1005.0
2017-09-10T07:06:19.086Z,1004.9
2017-09-10T07:07:20.685Z,1004.9
2017-09-10T07:08:22.168Z,1004.8
2017-09-10T07:09:23.740Z,1004.7
2017-09-10T07:10:25.155Z,1004.6
2017-09-10T07:11:26.631Z,1004.6
2017-09-10T07:12:28.087Z,1004.6
2017-09-10T07:13:29.643Z,1004.7
2017-09-10T07:14:31.118Z,1004.7
2017-09-10T07:15:32.603Z,1004.5
2017-09-10T07:16:34.019Z,1004.5
2017-09-10T07:17:35.570Z,1004.5
2017-09-10T07:18:36.999Z,1004.5
2017-09-10T07:19:38.552Z,1004.5
2017-09-10T07:20:39.960Z,1004.5
2017-09-10T07:21:41.436Z,1004.4
2017-09-10T07:22:42.917Z,1004.4
2017-09-10T07:23:44.407Z,1004.4
2017-09-10T07:24:45.871Z,1004.4
2017-09-10T07:25:47.377Z,1004.3
2017-09-10T07:26:48.901Z,1004.3
2017-09-10T07:27:50.422Z,1004.3
2017-09-10T07:28:51.907Z,1004.4
2017-09-10T07:29:53.385Z,1004.4
2017-09-10T07:30:54.921Z,1004.4
2017-09-10T07:31:56.507Z,1004.4
2017-09-10T07:32:57.998Z,1004.4
2017-09-10T07:33:59.543Z,1004.5
2017-09-10T07:35:00.962Z,1004.5
2017-09-10T07:36:02.739Z,1004.6
2017-09-10T07:37:04.467Z,1004.7
2017-09-10T07:38:06.143Z,1004.6
2017-09-10T07:39:07.986Z,1004.8
2017-09-10T07:40:09.868Z,1005.1
2017-09-10T07:41:11.320Z,1005.1
2017-09-10T07:42:12.794Z,1005.0
2017-09-10T07:43:14.238Z,1004.9
2017-09-10T07:44:15.842Z,1004.8
2017-09-10T07:45:17.305Z,1004.8
2017-09-10T07:46:18.806Z,1004.9
2017-09-10T07:47:20.217Z,1004.9
2017-09-10T07:48:21.822Z,1004.9
2017-09-10T07:49:23.284Z,1004.8
2017-09-10T07:50:24.757Z,1005.3
2017-09-10T07:51:26.183Z,1005.3
2017-09-10T07:52:27.585Z,1005.3
2017-09-10T07:53:29.066Z,1005.3
2017-09-10T07:54:30.675Z,1005.5
2017-09-10T07:55:32.163Z,1005.6
2017-09-10T07:56:33.710Z,1005.5
2017-09-10T07:57:35.141Z,1005.5
2017-09-10T07:58:36.722Z,1005.6
2017-09-10T07:59:38.280Z,1005.3
2017-09-10T08:00:39.782Z,1005.3
2017-09-10T08:01:41.239Z,1005.2
2017-09-10T08:02:42.730Z,1005.3
2017-09-10T08:03:44.184Z,1005.5
2017-09-10T08:04:45.644Z,1005.5
2017-09-10T08:05:47.027Z,1005.6
2017-09-10T08:06:48.495Z,1005.5
2017-09-10T08:07:49.970Z,1005.5
2017-09-10T08:08:51.473Z,1005.4
2017-09-10T08:09:52.951Z,1005.3
2017-09-10T08:10:54.447Z,1005.4
2017-09-10T08:11:55.889Z,1005.5
2017-09-10T08:12:57.367Z,1005.5
2017-09-10T08:13:58.827Z,1005.4
2017-09-10T08:15:00.316Z,1005.4
2017-09-10T08:16:01.830Z,1005.5
2017-09-10T08:17:03.225Z,1005.5
2017-09-10T08:18:04.655Z,1005.5
2017-09-10T08:19:06.084Z,1005.5
2017-09-10T08:20:07.593Z,1005.5
2017-09-10T08:21:09.058Z,1005.5
2017-09-10T08:22:10.510Z,1005.4
2017-09-10T08:23:12.034Z,1005.5
2017-09-10T08:24:13.461Z,1005.6
2017-09-10T08:25:14.923Z,1005.6
2017-09-10T08:26:16.382Z,1005.5
2017-09-10T08:27:17.849Z,1005.7
2017-09-10T08:28:19.288Z,1005.5
2017-09-10T08:29:20.812Z,1005.7
2017-09-10T08:30:22.245Z,1005.6
2017-09-10T08:31:23.732Z,1005.5
2017-09-10T08:32:25.195Z,1005.6
2017-09-10T08:33:26.687Z,1005.6
2017-09-10T08:34:28.219Z,1005.5
2017-09-10T08:35:29.655Z,1005.6
2017-09-10T08:36:31.100Z,1005.7
2017-09-10T08:37:32.638Z,1005.6
2017-09-10T08:38:34.022Z,1005.6
2017-09-10T08:39:35.408Z,1005.6
2017-09-10T08:40:36.862Z,1005.6
2017-09-10T08:41:38.537Z,1005.7
2017-09-10T08:42:39.977Z,1005.6
2017-09-10T08:43:41.395Z,1005.5
2017-09-10T08:44:42.887Z,1005.4
2017-09-10T08:45:44.428Z,1004.4
2017-09-10T08:46:45.885Z,1005.2
2017-09-10T08:47:47.349Z,1005.2
2017-09-10T08:48:48.815Z,1005.3
2017-09-10T08:49:50.361Z,1005.3
2017-09-10T08:50:51.819Z,1005.4
2017-09-10T08:51:53.409Z,1005.2
2017-09-10T08:52:54.868Z,1005.4
2017-09-10T08:53:56.416Z,1005.4
2017-09-10T08:54:57.859Z,1003.4
2017-09-10T08:55:59.348Z,1005.5
2017-09-10T08:57:00.807Z,1005.7
2017-09-10T08:58:02.339Z,1005.5
2017-09-10T08:59:03.770Z,1004.4
2017-09-10T09:00:05.271Z,1005.8
2017-09-10T09:01:06.834Z,1005.4
2017-09-10T09:02:08.395Z,1005.4
2017-09-10T09:03:09.828Z,1005.5
2017-09-10T09:04:11.330Z,1003.4
2017-09-10T09:05:12.766Z,1004.1
2017-09-10T09:06:14.243Z,1003.7
2017-09-10T09:07:15.700Z,1005.4
2017-09-10T09:08:17.227Z,1005.4
2017-09-10T09:09:18.656Z,1005.1
2017-09-10T09:10:20.185Z,1005.4
2017-09-10T09:11:21.600Z,1005.4
2017-09-10T09:12:23.064Z,1005.2
2017-09-10T09:13:24.520Z,1005.3
2017-09-10T09:14:26.086Z,1005.2
2017-09-10T09:15:27.635Z,1005.4
2017-09-10T09:16:29.191Z,1005.6
2017-09-10T09:17:30.798Z,1005.5
2017-09-10T09:18:32.304Z,1005.5
2017-09-10T09:19:33.789Z,1005.4
2017-09-10T09:20:35.386Z,1005.3
2017-09-10T09:21:36.879Z,1005.4
2017-09-10T09:22:38.397Z,1003.3
2017-09-10T09:23:39.897Z,1005.4
2017-09-10T09:24:41.412Z,1003.5
2017-09-10T09:25:42.835Z,1005.2
2017-09-10T09:26:45.310Z,1005.2
2017-09-10T09:27:46.744Z,1003.2
2017-09-10T09:28:48.301Z,1005.0
2017-09-10T09:29:49.742Z,1005.0
2017-09-10T09:30:51.333Z,1004.7
2017-09-10T09:31:52.761Z,1004.9
2017-09-10T09:32:54.260Z,1004.9
2017-09-10T09:33:55.725Z,1003.2
2017-09-10T09:34:57.279Z,1004.9
2017-09-10T09:35:58.824Z,1005.0
2017-09-10T09:37:00.324Z,1005.1
2017-09-10T09:38:01.782Z,1004.8
2017-09-10T09:39:03.367Z,1005.0
2017-09-10T09:40:04.818Z,1005.1
2017-09-10T09:41:06.309Z,1004.9
2017-09-10T09:42:07.754Z,1005.2
2017-09-10T09:43:09.370Z,1005.3
2017-09-10T09:44:10.818Z,1005.6
2017-09-10T09:45:12.420Z,1005.9
2017-09-10T09:46:13.871Z,1005.8
2017-09-10T09:47:15.385Z,1005.0
2017-09-10T09:48:18.529Z,1005.9
2017-09-10T09:49:20.750Z,1005.8
2017-09-10T09:50:23.281Z,1005.6
2017-09-10T09:51:25.701Z,1005.4
2017-09-10T09:52:27.947Z,1005.5
2017-09-10T09:53:30.450Z,1005.5
2017-09-10T09:54:32.309Z,1003.1
2017-09-10T09:55:34.401Z,1005.5
2017-09-10T09:56:36.457Z,1005.5
2017-09-10T09:57:39.028Z,1005.3
2017-09-10T09:58:41.289Z,1004.3
2017-09-10T09:59:43.933Z,1003.0
2017-09-10T10:00:46.243Z,1005.2
2017-09-10T10:01:49.048Z,1005.1
2017-09-10T10:02:51.802Z,1005.1
2017-09-10T10:03:54.489Z,1003.2
2017-09-10T10:04:55.965Z,1005.0
2017-09-10T10:05:57.490Z,1005.0
2017-09-10T10:06:58.953Z,1003.2
2017-09-10T10:08:01.910Z,1003.2
2017-09-10T10:09:05.184Z,1003.1
2017-09-10T10:10:08.525Z,1004.7
2017-09-10T10:11:12.083Z,1003.3
2017-09-10T10:12:13.562Z,1004.5
2017-09-10T10:13:17.025Z,1003.4
2017-09-10T10:14:18.540Z,1004.3
2017-09-10T10:15:20.015Z,1003.2
2017-09-10T10:16:21.541Z,1003.2
2017-09-10T10:17:22.981Z,1003.2
2017-09-10T10:18:24.519Z,1003.2
2017-09-10T10:19:26.007Z,1003.3
2017-09-10T10:20:27.526Z,1003.3
2017-09-10T10:21:30.599Z,1003.4
2017-09-10T10:22:33.742Z,1004.2
2017-09-10T10:23:35.184Z,1004.2
2017-09-10T10:24:36.744Z,1004.0
2017-09-10T10:25:38.221Z,1003.8
2017-09-10T10:26:39.718Z,1003.2
2017-09-10T10:27:41.221Z,1003.3
2017-09-10T10:28:42.726Z,1003.6
2017-09-10T10:29:44.190Z,1003.7
2017-09-10T10:30:45.696Z,1003.4
2017-09-10T10:31:47.139Z,1003.6
2017-09-10T10:32:48.667Z,1003.6
2017-09-10T10:33:50.161Z,1003.5
2017-09-10T10:34:51.636Z,1003.5
2017-09-10T10:35:53.072Z,1003.4
2017-09-10T10:36:54.639Z,1003.9
2017-09-10T10:37:56.086Z,1003.6
2017-09-10T10:38:57.642Z,1003.5
2017-09-10T10:39:59.071Z,1003.5
2017-09-10T10:41:00.591Z,1003.5
2017-09-10T10:42:02.099Z,1003.4
2017-09-10T10:43:03.587Z,1003.5
2017-09-10T10:44:05.027Z,1003.4
2017-09-10T10:45:06.552Z,1003.4
2017-09-10T10:46:07.964Z,1003.9
2017-09-10T10:47:09.481Z,1003.5
2017-09-10T10:48:10.943Z,1003.7
2017-09-10T10:49:12.436Z,1003.7
2017-09-10T10:50:13.886Z,1003.7
2017-09-10T10:51:15.509Z,1003.8
2017-09-10T10:52:16.963Z,1003.6
2017-09-10T10:53:18.530Z,1003.4
2017-09-10T10:54:19.952Z,1003.3
2017-09-10T10:55:21.470Z,1003.3
2017-09-10T10:56:22.937Z,1003.5
2017-09-10T10:57:24.508Z,1003.5
2017-09-10T10:58:26.004Z,1003.5
2017-09-10T10:59:27.571Z,1003.6
2017-09-10T11:00:29.077Z,1003.5
2017-09-10T11:01:30.526Z,1003.3
2017-09-10T11:02:31.978Z,1003.2
2017-09-10T11:03:33.580Z,1003.3
2017-09-10T11:04:35.060Z,1003.2
2017-09-10T11:05:36.505Z,1003.7
2017-09-10T11:06:37.937Z,1003.5
2017-09-10T11:07:39.501Z,1003.5
2017-09-10T11:08:40.977Z,1003.4
2017-09-10T11:09:42.490Z,1003.5
2017-09-10T11:10:43.923Z,1003.5
2017-09-10T11:11:45.476Z,1003.6
2017-09-10T11:12:46.931Z,1003.9
2017-09-10T11:13:48.431Z,1003.9
2017-09-10T11:14:49.918Z,1003.5
2017-09-10T11:15:51.447Z,1003.3
2017-09-10T11:16:52.893Z,1003.1
2017-09-10T11:17:54.543Z,1003.2
2017-09-10T11:18:56.081Z,1003.2
2017-09-10T11:19:57.633Z,1003.3
2017-09-10T11:20:59.076Z,1003.3
2017-09-10T11:22:00.609Z,1003.3
2017-09-10T11:23:02.074Z,1003.2
2017-09-10T11:24:03.655Z,1003.3
2017-09-10T11:25:05.160Z,1003.3
2017-09-10T11:26:06.695Z,1003.4
2017-09-10T11:27:08.123Z,1003.4
2017-09-10T11:28:09.680Z,1003.6
2017-09-10T11:29:11.169Z,1003.5
2017-09-10T11:30:12.665Z,1003.3
2017-09-10T11:31:14.145Z,1003.2
2017-09-10T11:32:15.629Z,1003.4
2017-09-10T11:33:17.103Z,1003.5
2017-09-10T11:34:18.657Z,1003.2
2017-09-10T11:35:20.079Z,1003.4
2017-09-10T11:36:21.630Z,1003.3
2017-09-10T11:37:23.110Z,1003.4
2017-09-10T11:38:24.588Z,1003.2
2017-09-10T11:39:26.010Z,1003.0
2017-09-10T11:40:27.593Z,1003.1
2017-09-10T11:41:29.020Z,1003.1
2017-09-10T11:42:30.541Z,1003.1
2017-09-10T11:43:32.124Z,1003.1
2017-09-10T11:44:33.603Z,1003.2
2017-09-10T11:45:35.071Z,1003.3
2017-09-10T11:46:36.582Z,1003.2
2017-09-10T11:47:38.152Z,1003.2
2017-09-10T11:48:39.664Z,1003.0
2017-09-10T11:49:41.099Z,1003.2
2017-09-10T11:50:42.556Z,1003.3
2017-09-10T11:51:43.927Z,1003.2
2017-09-10T11:52:45.406Z,1003.2
2017-09-10T11:53:46.802Z,1003.4
2017-09-10T11:54:48.296Z,1003.2
2017-09-10T11:55:49.715Z,1003.0
2017-09-10T11:56:51.171Z,1003.1
2017-09-10T11:57:52.614Z,1003.2
2017-09-10T11:58:54.118Z,1003.2
2017-09-10T11:59:55.547Z,1003.2
2017-09-10T12:00:57.106Z,1003.1
2017-09-10T12:01:58.556Z,1003.1
2017-09-10T12:03:00.204Z,1002.9
2017-09-10T12:04:01.636Z,1002.8
2017-09-10T12:05:03.188Z,1002.8
2017-09-10T12:06:04.642Z,1003.0
2017-09-10T12:07:06.252Z,1003.0
2017-09-10T12:08:07.778Z,1003.2
2017-09-10T12:09:09.203Z,1003.0
2017-09-10T12:10:10.644Z,1003.0
2017-09-10T12:11:12.128Z,1003.0
2017-09-10T12:12:13.561Z,1003.0
2017-09-10T12:13:15.099Z,1003.1
2017-09-10T12:14:16.575Z,1003.1
2017-09-10T12:15:18.094Z,1002.9
2017-09-10T12:16:19.602Z,1002.8
2017-09-10T12:17:21.076Z,1003.0
2017-09-10T12:18:22.668Z,1003.0
2017-09-10T12:19:24.179Z,1003.1
2017-09-10T12:20:25.640Z,1003.2
2017-09-10T12:21:27.128Z,1003.1
2017-09-10T12:22:28.581Z,1003.3
2017-09-10T12:23:30.208Z,1002.9
2017-09-10T12:24:31.648Z,1002.7
2017-09-10T12:25:33.277Z,1002.8
2017-09-10T12:26:34.717Z,1002.9
2017-09-10T12:27:36.188Z,1002.9
2017-09-10T12:28:37.638Z,1003.0
2017-09-10T12:29:39.215Z,1002.8
2017-09-10T12:30:40.678Z,1002.8
2017-09-10T12:31:42.206Z,1002.9
2017-09-10T12:32:43.717Z,1002.8
2017-09-10T12:33:45.224Z,1002.7
2017-09-10T12:34:46.674Z,1002.6
2017-09-10T12:35:48.300Z,1002.6
2017-09-10T12:36:49.713Z,1002.5
2017-09-10T12:37:52.307Z,1002.5
2017-09-10T12:38:53.325Z,1002.7
2017-09-10T12:39:54.795Z,1002.7
2017-09-10T12:40:56.196Z,1002.7
2017-09-10T12:41:57.716Z,1002.8
2017-09-10T12:42:59.162Z,1002.7
2017-09-10T12:44:00.733Z,1002.7
2017-09-10T12:45:02.181Z,1002.6
2017-09-10T12:46:03.623Z,1002.6
2017-09-10T12:47:05.019Z,1002.6